• Join FlightAware (Why Join?)
  • Login
  • US Flag 
07:51PM EDT


 

Airport Tracker/Info


-or-


 

Live Flight TrackerFlight Track Log ✈ DAL3938 ✈ 27-Apr-2013 ✈ KMHT - KDTW

Flight Track Log - Related Links

Times and Time Zones

All times are in EDT time to prevent confusion due to time zone crossing. See the DAL3938 flight status page for this flight to view local times or setup timezone preferences in your user account.

Time Position Orientation Groundspeed Altitude Reporting Facility
EDT Latitude Longitude Course Direction KTS MPH feet Rate Location/Type
07:51AM 42.9500 -71.4167 270° West 154 177 1,200  Level KA90
07:52AM 43.0000 -71.4000 14° North 193 222 3,100 2,160 Climbing KA90
07:53AM 43.0714 -71.4481 334° Northwest 268 308 6,100 2,340 Climbing Boston Center
07:54AM 42.9500 -71.9501 270° West  Level FlightAware Approximate
07:54AM 43.0928 -71.5303 290° West 254 292 8,700  Level Boston Center
07:55AM 42.9501 -72.0805 270° West  Level FlightAware Approximate
07:55AM 43.1000 -71.6439 275° West 258 297 10,600  Level Boston Center
07:56AM 42.9500 -72.2109 270° West  Level FlightAware Approximate
07:56AM 43.1028 -71.7578 272° West 310 357 12,500  Level Boston Center
07:57AM 43.1078 -71.8911 273° West 327 376 14,800 1,980 Climbing Boston Center
07:58AM 43.1122 -72.0050 273° West 333 383 16,500 1,500 Climbing Boston Center
07:59AM 43.1150 -72.1500 272° West 338 389 17,800 1,320 Climbing Boston Center
08:00AM 43.1275 -72.2750 278° West 350 403 19,200 1,320 Climbing Boston Center
08:01AM 43.1297 -72.4144 271° West 350 403 20,500 1,200 Climbing Boston Center
08:02AM 43.1381 -72.5511 275° West 355 409 21,700 1,140 Climbing Boston Center
08:03AM 43.1317 -72.6792 266° West 368 423 22,800 1,080 Climbing Boston Center
08:04AM 43.1333 -72.8214 271° West 375 432 23,900 900 Climbing Boston Center
08:05AM 43.1389 -72.9864 273° West 391 450 24,700 780 Climbing Boston Center
08:06AM 43.1422 -73.1317 272° West 384 442 25,500 720 Climbing Boston Center
08:07AM 43.1456 -73.2825 272° West 384 442 26,200 840 Climbing Boston Center
08:08AM 43.1464 -73.4133 271° West 384 442 27,200 900 Climbing Boston Center
08:09AM 43.1494 -73.5583 272° West 384 442 28,000 360 Climbing Boston Center
08:10AM 43.1500 -73.7094 270° West 390 449 28,000  Level Boston Center
08:11AM 43.1500 -73.8831 270° West 404 465 28,100 540 Climbing Boston Center
08:12AM 43.1519 -74.0339 271° West 404 465 29,100 900 Climbing Boston Center
08:13AM 43.1561 -74.1847 272° West 404 465 30,000 420 Climbing Boston Center
08:14AM 43.1578 -74.3328 271° West 404 465 30,000  Level Boston Center
08:15AM 43.1594 -74.4839 271° West 404 465 30,000  Level Boston Center
08:16AM 43.1608 -74.6375 271° West 404 465 30,000  Level Boston Center
08:17AM 43.1619 -74.7942 271° West 404 465 30,000  Level Boston Center
08:18AM 43.1611 -74.9308 270° West 404 465 30,000  Level Boston Center
08:19AM 43.1617 -75.0903 270° West 404 465 30,000  Level Boston Center
08:20AM 43.1639 -75.2497 271° West 409 471 30,000  Level Boston Center
08:21AM 43.1608 -75.3750 268° West 409 471 30,000  Level Boston Center
08:22AM 43.1642 -75.5631 271° West 414 476 30,000  Level Boston Center
08:23AM 43.1619 -75.7222 269° West 420 483 30,000  Level Boston Center
08:26AM 43.1622 -76.1256 270° West 419 482 30,000  Level Cleveland Center
08:27AM 43.1533 -76.2797 266° West 419 482 30,000  Level Cleveland Center
08:28AM 43.1406 -76.4372 264° West 419 482 30,000  Level Cleveland Center
08:29AM 43.1272 -76.5975 264° West 424 488 30,000  Level Cleveland Center
08:30AM 43.1133 -76.7378 262° West 424 488 30,000  Level Cleveland Center
08:31AM 43.0997 -76.8981 263° West 430 495 30,000  Level Cleveland Center
08:32AM 43.0817 -77.0583 261° West 430 495 30,000  Level Cleveland Center
08:33AM 43.0636 -77.2183 261° West 430 495 30,000  Level Cleveland Center
08:34AM 43.0494 -77.3783 263° West 430 495 30,000  Level Cleveland Center
08:35AM 43.0308 -77.5414 261° West 430 495 30,000  Level Cleveland Center
08:36AM 43.0142 -77.7011 262° West 430 495 30,000  Level Cleveland Center
08:37AM 42.9953 -77.8639 261° West 430 495 30,000  Level Cleveland Center
08:38AM 42.9761 -78.0292 261° West 430 495 30,000  Level Cleveland Center
08:39AM 42.9564 -78.1889 260° West 430 495 30,000  Level Cleveland Center
08:40AM 42.9389 -78.3514 262° West 430 495 30,000  Level Cleveland Center
08:41AM 42.9189 -78.5136 260° West 430 495 30,000  Level Cleveland Center
08:42AM 42.9008 -78.6786 262° West 430 495 30,000  Level Cleveland Center
08:43AM 42.8806 -78.8381 260° West 430 495 30,000  Level Cleveland Center
08:44AM 42.8619 -79.0000 261° West 430 495 30,000  Level Cleveland Center
08:45AM 42.8392 -79.1619 259° West 430 495 30,000  Level Cleveland Center
08:46AM 42.8222 -79.3236 262° West 430 495 30,000  Level Cleveland Center
08:47AM 42.8031 -79.4881 261° West 430 495 30,000 -180 Level Cleveland Center
08:48AM 42.7794 -79.6497 259° West 430 495 29,700 -300 Descending Cleveland Center
08:49AM 42.7597 -79.8111 261° West 435 501 29,400 -300 Descending Cleveland Center
08:50AM 42.7461 -79.9781 264° West 435 501 29,100 -360 Descending Cleveland Center
08:51AM 42.7386 -80.1506 267° West 449 517 28,700 -360 Descending Cleveland Center
08:52AM 42.7308 -80.3147 266° West 457 526 28,400 -300 Descending Cleveland Center
08:53AM 42.7250 -80.4956 268° West 442 509 28,100 -240 Descending Cleveland Center
08:54AM 42.7164 -80.6567 266° West 437 503 28,000 -300 Descending Cleveland Center
08:55AM 42.7081 -80.8206 266° West 437 503 27,600 -480 Descending Cleveland Center
08:56AM 42.6950 -80.9842 264° West 443 510 27,100 -540 Descending Cleveland Center
08:57AM 42.6775 -81.1508 262° West 443 510 26,600 -600 Descending Cleveland Center
08:58AM 42.6581 -81.3144 261° West 448 516 26,000 -600 Descending Cleveland Center
08:59AM 42.6381 -81.4750 260° West 448 516 25,500 -540 Descending Cleveland Center
09:00AM 42.6178 -81.6411 261° West 448 516 25,000 -1,140 Descending Cleveland Center
09:01AM 42.5994 -81.8072 262° West 448 516 23,300 -2,100 Descending Cleveland Center
09:02AM 42.5792 -81.9647 260° West 448 516 20,800 -2,520 Descending Cleveland Center
09:03AM 42.5603 -82.1194 261° West 438 504 18,300 -2,520 Descending Cleveland Center
09:03AM 42.5578 -82.1531 264° West 422 486 17,700 -2,100 Descending Cleveland Center
09:04AM 42.5461 -82.2489 261° West 408 470 16,500 -2,220 Descending Cleveland Center
09:05AM 42.5292 -82.4006 261° West 377 434 14,100 -2,220 Descending Cleveland Center
09:06AM 42.5125 -82.5381 261° West 374 430 12,100 -1,380 Descending Cleveland Center
09:06AM 42.4728 -82.6494 244° Southwest 334 384 11,500 -1,020 Descending Cleveland Center
09:07AM 42.4378 -82.7467 244° Southwest 280 322 10,200 -1,620 Descending Cleveland Center
09:09AM 42.4150 -82.8528 254° West 267 307 8,100 -1,920 Descending Cleveland Center
09:10AM 42.4044 -82.9564 262° West 262 302 6,200 -1,140 Descending Cleveland Center
09:11AM 42.3900 -83.0517 258° West 256 295 5,900 -1,260 Descending Cleveland Center
09:12AM 42.3692 -83.1406 252° West 258 297 3,700 -1,680 Descending Cleveland Center
09:13AM 42.3342 -83.2178 239° Southwest 253 291 2,600 -600 Descending Cleveland Center
09:14AM 42.2994 -83.2756 231° Southwest 186 214 2,500 -120 Descending Cleveland Center